Time;durP1;ratioP1;P1;durP2;ratioP2;P2;SDS_P1;SDS_P2;PMS_P1;PMS_P2;Temp;Humidity;BMP_temperature;BMP_pressure;BME280_temperature;BME280_humidity;BME280_pressure;Samples;Min_cycle;Max_cycle;Signal;HPM_P1;HPM_P2
2021/07/21 00:00:13;;;;;;;10.60;3.95;;;;;;;22.93;100.00;100420.37;1719742;83;21008;-92
2021/07/21 00:02:40;;;;;;;9.10;4.37;;;;;;;22.93;100.00;100419.00;1712823;83;21003;-95
2021/07/21 00:05:12;;;;;;;17.62;4.25;;;;;;;22.94;100.00;100370.33;1693452;83;21152;-94
2021/07/21 00:07:41;;;;;;;10.65;4.85;;;;;;;22.98;100.00;100347.92;1719595;83;21019;-91
2021/07/21 00:10:10;;;;;;;10.72;4.22;;;;;;;22.97;100.00;100360.04;1718134;83;21040;-92
2021/07/21 00:15:27;;;;;;;8.93;4.75;;;;;;;22.99;100.00;100356.38;1719729;82;21638;-92
2021/07/21 00:20:31;;;;;;;15.60;4.80;;;;;;;22.89;100.00;100312.31;1631903;87;21066;-93
2021/07/21 00:22:58;;;;;;;13.15;4.87;;;;;;;22.78;100.00;100302.38;1632263;88;20992;-93
2021/07/21 00:25:23;;;;;;;15.03;5.03;;;;;;;22.71;100.00;100273.89;1632147;88;21066;-90
2021/07/21 00:27:50;;;;;;;11.68;5.22;;;;;;;22.60;100.00;100261.25;1631726;87;21030;-87
2021/07/21 00:30:18;;;;;;;14.50;5.00;;;;;;;22.40;100.00;100244.59;1631946;88;22019;-90
2021/07/21 00:32:45;;;;;;;16.80;6.25;;;;;;;22.29;100.00;100219.34;1631982;87;21075;-91
2021/07/21 00:35:18;;;;;;;19.92;5.75;;;;;;;22.22;100.00;100178.77;1632114;88;21558;-91
2021/07/21 00:37:45;;;;;;;12.85;5.60;;;;;;;22.19;100.00;100114.96;1632292;88;21146;-94
2021/07/21 00:40:15;;;;;;;14.43;5.30;;;;;;;22.11;100.00;100042.56;1632115;88;21086;-93
2021/07/21 00:42:42;;;;;;;16.70;5.90;;;;;;;22.02;100.00;100018.61;1632200;88;21252;-95
2021/07/21 00:45:09;;;;;;;17.87;6.05;;;;;;;21.91;100.00;100018.89;1632088;88;21226;-93
2021/07/21 00:47:36;;;;;;;22.80;5.95;;;;;;;21.90;100.00;100007.70;1632153;88;21150;-92
2021/07/21 00:50:10;;;;;;;17.07;5.80;;;;;;;21.91;100.00;100002.42;1632021;88;21043;-93
2021/07/21 00:52:39;;;;;;;13.43;5.33;;;;;;;21.91;100.00;100021.62;1632175;88;21554;-94
2021/07/21 00:55:09;;;;;;;14.93;5.55;;;;;;;21.91;100.00;100016.14;1632206;88;21218;-92
2021/07/21 00:57:36;;;;;;;12.18;4.72;;;;;;;21.88;100.00;100001.17;1632161;88;21043;-93
2021/07/21 01:00:16;;;;;;;15.13;5.50;;;;;;;21.82;100.00;99977.89;1632159;88;21055;-94
2021/07/21 01:02:43;;;;;;;10.00;4.92;;;;;;;21.72;100.00;99964.12;1600601;89;21114;-89
2021/07/21 01:05:26;;;;;;;14.65;5.00;;;;;;;21.64;100.00;99959.58;1579317;90;21096;-92
2021/07/21 01:07:53;;;;;;;11.85;5.50;;;;;;;21.61;100.00;99966.34;1604410;89;21330;-90
2021/07/21 01:11:15;;;;;;;10.23;5.37;;;;;;;21.60;100.00;99975.15;1579314;90;21090;-93
2021/07/21 01:13:55;;;;;;;13.35;4.62;;;;;;;21.60;100.00;99972.41;1601259;89;21169;-94
2021/07/21 01:16:26;;;;;;;15.85;5.70;;;;;;;21.62;100.00;99967.38;1614629;86;21174;-92
2021/07/21 01:19:22;;;;;;;13.70;5.47;;;;;;;21.61;100.00;99954.00;1574313;91;21541;-92
2021/07/21 01:22:47;;;;;;;12.25;5.58;;;;;;;21.62;100.00;99952.30;1574841;91;21180;-91
2021/07/21 01:25:18;;;;;;;13.28;4.97;;;;;;;21.61;100.00;99945.20;1576926;91;21101;-95
2021/07/21 01:27:54;;;;;;;12.15;5.20;;;;;;;21.63;100.00;99933.89;1576414;90;21159;-92
2021/07/21 01:30:28;;;;;;;11.25;5.33;;;;;;;21.59;100.00;99932.98;1558310;90;21757;-93
2021/07/21 01:33:02;;;;;;;16.15;5.92;;;;;;;21.56;100.00;99933.13;1536292;93;20994;-95
2021/07/21 01:35:36;;;;;;;12.95;6.17;;;;;;;21.56;100.00;99945.47;1536250;93;21196;-92
2021/07/21 01:38:08;;;;;;;12.20;5.40;;;;;;;21.53;100.00;99936.55;1535701;93;21049;-92
2021/07/21 01:41:17;;;;;;;15.30;5.78;;;;;;;21.55;100.00;99919.18;1550586;92;21102;-93
2021/07/21 01:43:48;;;;;;;12.68;5.40;;;;;;;21.54;100.00;99911.53;1530356;93;21017;-96
2021/07/21 01:46:17;;;;;;;13.58;5.62;;;;;;;21.55;100.00;99917.81;1540007;92;21584;-96
2021/07/21 01:48:45;;;;;;;16.35;4.87;;;;;;;21.53;100.00;99922.84;1561203;90;21167;-89
2021/07/21 01:51:13;;;;;;;15.90;5.53;;;;;;;21.48;100.00;99923.90;1555545;91;21191;-89
2021/07/21 01:53:41;;;;;;;9.28;4.60;;;;;;;21.48;100.00;99922.53;1575785;91;21550;-93
2021/07/21 01:56:09;;;;;;;14.95;5.53;;;;;;;21.46;100.00;99923.45;1575803;91;21004;-90
2021/07/21 01:58:37;;;;;;;17.23;5.58;;;;;;;21.45;100.00;99925.97;1555626;91;21070;-92
2021/07/21 02:01:10;;;;;;;17.73;5.97;;;;;;;21.41;100.00;99946.98;1575802;91;21968;-93
2021/07/21 02:03:41;;;;;;;12.30;5.22;;;;;;;21.37;100.00;99941.20;1575777;91;26976;-92
2021/07/21 02:06:08;;;;;;;13.43;5.92;;;;;;;21.36;100.00;99928.62;1555718;91;21028;-92
2021/07/21 02:08:36;;;;;;;11.90;5.37;;;;;;;21.38;100.00;99929.08;1583538;90;21537;-90
2021/07/21 02:11:04;;;;;;;13.58;5.92;;;;;;;21.42;100.00;99928.62;1589919;87;21569;-92
2021/07/21 02:13:32;;;;;;;17.35;6.10;;;;;;;21.49;100.00;99931.55;1587726;90;21175;-90
2021/07/21 02:16:01;;;;;;;15.10;5.80;;;;;;;21.53;100.00;99919.55;1587463;88;21088;-95
2021/07/21 02:18:29;;;;;;;14.33;5.60;;;;;;;21.57;100.00;99918.84;1587599;90;21117;-91
2021/07/21 02:20:56;;;;;;;12.53;5.60;;;;;;;21.60;100.00;99931.27;1587549;90;21494;-90
2021/07/21 02:23:28;;;;;;;15.83;5.60;;;;;;;21.58;100.00;99941.78;1651223;86;21546;-96
2021/07/21 02:25:59;;;;;;;15.23;5.30;;;;;;;21.60;100.00;99955.95;1653541;86;21159;-94
2021/07/21 02:28:29;;;;;;;10.00;5.20;;;;;;;21.64;100.00;99969.18;1664879;84;21475;-91
2021/07/21 02:30:59;;;;;;;13.32;5.33;;;;;;;21.65;100.00;99964.48;1779036;80;21027;-89
2021/07/21 02:33:36;;;;;;;9.90;5.15;;;;;;;21.69;100.00;99963.45;1779224;80;20975;-90
2021/07/21 02:36:04;;;;;;;14.53;5.40;;;;;;;21.75;100.00;99963.99;1694730;84;21031;-92
2021/07/21 02:38:30;;;;;;;14.80;5.47;;;;;;;21.80;100.00;99980.20;1694799;84;21083;-92
2021/07/21 02:40:57;;;;;;;16.00;5.78;;;;;;;21.82;100.00;99996.30;1694438;84;20956;-91
2021/07/21 02:43:23;;;;;;;13.03;5.80;;;;;;;21.79;100.00;100113.00;1695028;84;20991;-94
2021/07/21 02:45:49;;;;;;;14.73;6.15;;;;;;;21.71;100.00;100144.92;1694770;84;21087;-89
2021/07/21 02:48:15;;;;;;;12.63;5.50;;;;;;;21.69;100.00;100141.72;1694739;84;21488;-85
2021/07/21 02:50:47;;;;;;;18.05;6.72;;;;;;;21.76;100.00;100093.92;1694808;84;21075;-88
2021/07/21 02:53:25;;;;;;;14.50;6.30;;;;;;;21.94;100.00;100118.33;1694460;84;21034;-91
2021/07/21 02:55:59;;;;;;;13.22;6.40;;;;;;;22.07;100.00;100133.62;1694413;84;21067;-91
2021/07/21 02:58:42;;;;;;;13.13;5.95;;;;;;;22.20;100.00;100135.77;1694812;84;21582;-87
2021/07/21 03:01:08;;;;;;;12.60;5.53;;;;;;;22.30;100.00;100118.02;1611290;89;21214;-90
2021/07/21 03:03:37;;;;;;;11.45;6.40;;;;;;;22.39;100.00;100104.92;1613266;89;22025;-89
2021/07/21 03:06:06;;;;;;;11.08;6.35;;;;;;;22.48;100.00;100104.19;1613180;89;21043;-91
2021/07/21 03:08:34;;;;;;;12.55;5.60;;;;;;;22.56;100.00;100100.48;1613355;89;21108;-90
2021/07/21 03:11:01;;;;;;;18.30;6.33;;;;;;;22.70;100.00;100115.72;1613288;89;21038;-89
2021/07/21 03:13:32;;;;;;;11.22;5.67;;;;;;;22.83;100.00;100115.88;1651942;84;21010;-91
2021/07/21 03:15:59;;;;;;;12.30;5.80;;;;;;;22.95;100.00;100111.69;1692699;84;21061;-89
2021/07/21 03:18:28;;;;;;;13.22;6.10;;;;;;;23.06;100.00;100111.92;1696086;84;21017;-87
2021/07/21 03:20:56;;;;;;;13.45;6.00;;;;;;;23.13;100.00;100118.41;1696259;84;21577;-93
2021/07/21 03:23:26;;;;;;;12.88;6.00;;;;;;;23.18;100.00;100120.09;1696103;84;21132;-89
2021/07/21 03:25:56;;;;;;;13.93;5.65;;;;;;;23.21;100.00;100114.47;1696130;84;21600;-91
2021/07/21 03:28:24;;;;;;;11.40;5.70;;;;;;;23.22;100.00;100112.72;1693051;84;21157;-90
2021/07/21 03:30:52;;;;;;;10.95;5.78;;;;;;;23.26;100.00;100110.84;1682884;85;21175;-87
2021/07/21 03:33:20;;;;;;;13.90;6.30;;;;;;;23.26;100.00;100103.17;1660197;85;21483;-91
2021/07/21 03:35:48;;;;;;;10.32;5.10;;;;;;;23.24;100.00;100096.67;1683261;85;21440;-88
2021/07/21 03:38:16;;;;;;;12.30;5.22;;;;;;;23.24;100.00;100086.25;1683289;85;21031;-90
2021/07/21 03:40:43;;;;;;;15.70;6.05;;;;;;;23.21;100.00;100089.72;1683264;85;21219;-91
2021/07/21 03:43:10;;;;;;;16.62;6.25;;;;;;;23.29;100.00;100073.00;1683256;85;21089;-88
2021/07/21 03:45:38;;;;;;;16.05;5.58;;;;;;;23.41;100.00;100072.66;1659892;85;21023;-91
2021/07/21 03:48:05;;;;;;;14.45;5.97;;;;;;;23.45;100.00;100079.85;1683374;85;21019;-93
2021/07/21 03:50:33;;;;;;;10.15;5.42;;;;;;;23.43;100.00;100073.91;1683526;85;21015;-92
2021/07/21 03:53:01;;;;;;;11.93;5.70;;;;;;;23.37;100.00;100063.55;1683636;85;21901;-94
2021/07/21 03:55:30;;;;;;;11.55;5.47;;;;;;;23.27;100.00;100060.21;1683698;85;21046;-89
2021/07/21 03:57:56;;;;;;;14.65;6.33;;;;;;;23.19;100.00;100064.53;1722736;81;20980;-93
2021/07/21 04:00:24;;;;;;;13.85;6.17;;;;;;;23.11;100.00;100072.59;1768129;80;21051;-95
2021/07/21 04:02:58;;;;;;;14.90;5.90;;;;;;;23.10;100.00;100083.38;1767888;80;20995;-94
2021/07/21 04:05:27;;;;;;;13.70;6.15;;;;;;;23.05;100.00;100107.59;1767965;81;21069;-95
2021/07/21 04:07:58;;;;;;;15.48;6.42;;;;;;;23.03;100.00;100138.20;1767973;80;20949;-94
2021/07/21 04:10:28;;;;;;;11.08;5.45;;;;;;;23.00;100.00;100155.40;1669006;85;20982;-94
2021/07/21 04:12:57;;;;;;;12.35;6.58;;;;;;;22.98;100.00;100160.44;1668938;86;21083;-94
2021/07/21 04:15:28;;;;;;;12.85;6.37;;;;;;;22.96;100.00;100140.75;1669003;86;21264;-95
2021/07/21 04:17:56;;;;;;;12.20;5.80;;;;;;;22.92;100.00;100115.11;1646316;86;21244;-95
2021/07/21 04:20:23;;;;;;;16.20;5.83;;;;;;;22.87;100.00;100070.83;1646478;86;21070;-93
2021/07/21 04:22:53;;;;;;;12.07;6.00;;;;;;;22.70;100.00;100034.67;1669684;85;21065;-95
2021/07/21 04:25:22;;;;;;;11.48;5.60;;;;;;;22.50;100.00;100031.86;1669668;86;22007;-96
2021/07/21 04:27:50;;;;;;;11.57;5.78;;;;;;;22.36;100.00;100054.25;1671387;81;21053;-92
2021/07/21 04:30:16;;;;;;;13.70;6.15;;;;;;;22.31;100.00;100112.16;1668467;83;22060;-91
2021/07/21 04:32:44;;;;;;;15.32;5.78;;;;;;;22.22;100.00;100154.86;1668938;86;21491;-89
2021/07/21 04:35:11;;;;;;;11.88;6.20;;;;;;;22.19;100.00;100176.73;1668762;86;21034;-87
2021/07/21 04:37:41;;;;;;;13.30;6.58;;;;;;;22.14;100.00;100172.23;1668733;86;21757;-89
2021/07/21 04:40:10;;;;;;;17.85;7.05;;;;;;;22.12;100.00;100179.22;1668741;86;21633;-89
2021/07/21 04:42:37;;;;;;;16.45;6.60;;;;;;;22.10;100.00;100184.27;1668806;86;21885;-87
2021/07/21 04:45:04;;;;;;;16.65;6.87;;;;;;;22.08;100.00;100197.53;1668686;86;21045;-89
2021/07/21 04:47:31;;;;;;;13.65;6.65;;;;;;;22.05;100.00;100204.52;1670282;84;21059;-92
2021/07/21 04:50:07;;;;;;;22.67;7.33;;;;;;;22.03;100.00;100181.30;1667561;84;21011;-92
2021/07/21 04:52:33;;;;;;;20.30;7.15;;;;;;;21.99;100.00;100151.81;1697893;84;21081;-89
2021/07/21 04:54:59;;;;;;;19.07;7.03;;;;;;;21.93;100.00;100138.69;1694166;84;21113;-89
2021/07/21 04:57:25;;;;;;;18.40;7.22;;;;;;;21.89;100.00;100133.11;1673871;84;21186;-89
2021/07/21 04:59:51;;;;;;;16.90;6.70;;;;;;;21.82;100.00;100136.20;1689225;84;20884;-89
2021/07/21 05:02:17;;;;;;;19.82;6.55;;;;;;;21.71;100.00;100164.70;1663230;84;20933;-87
2021/07/21 05:04:44;;;;;;;20.25;7.15;;;;;;;21.60;100.00;100212.36;1696992;84;20907;-88
2021/07/21 05:07:12;;;;;;;18.70;6.53;;;;;;;21.50;100.00;100253.93;1690749;83;21157;-90
2021/07/21 05:09:40;;;;;;;13.00;6.40;;;;;;;21.45;100.00;100287.87;1727827;81;21536;-89
2021/07/21 05:12:09;;;;;;;12.78;6.45;;;;;;;21.39;100.00;100310.38;1728295;83;20980;-87
2021/07/21 05:14:34;;;;;;;16.42;7.30;;;;;;;21.35;100.00;100321.73;1690841;84;21638;-93
2021/07/21 05:17:00;;;;;;;18.30;7.85;;;;;;;21.29;100.00;100293.73;1686959;84;20876;-87
2021/07/21 05:19:27;;;;;;;20.92;9.23;;;;;;;21.23;100.00;100313.70;1691117;84;22084;-85
2021/07/21 05:21:56;;;;;;;27.85;10.72;;;;;;;21.17;100.00;100338.36;1690867;84;21011;-88
2021/07/21 05:24:24;;;;;;;28.30;13.95;;;;;;;21.13;100.00;100331.17;1690668;84;21027;-86
2021/07/21 05:26:50;;;;;;;45.12;16.70;;;;;;;21.12;100.00;100307.08;1690569;84;21020;-88
2021/07/21 05:29:16;;;;;;;43.98;18.12;;;;;;;21.13;100.00;100304.56;1690665;84;20900;-84
2021/07/21 05:31:42;;;;;;;39.63;18.15;;;;;;;21.13;100.00;100301.81;1690611;83;22119;-83
2021/07/21 05:34:08;;;;;;;36.98;18.42;;;;;;;21.14;100.00;100313.58;1690650;83;21106;-86
2021/07/21 05:49:27;;;;;;;40.08;17.23;;;;;;;20.87;100.00;100267.83;1824705;77;26648;-87
2021/07/21 05:51:53;;;;;;;33.60;15.80;;;;;;;20.83;100.00;100266.33;1775018;79;21355;-85
2021/07/21 05:54:20;;;;;;;35.40;15.78;;;;;;;20.78;100.00;100254.78;1765595;80;21134;-87
2021/07/21 05:56:46;;;;;;;30.85;14.23;;;;;;;20.78;100.00;100241.09;1763467;79;21134;-85
2021/07/21 05:59:12;;;;;;;37.48;16.75;;;;;;;20.79;100.00;100250.32;1778954;80;21091;-88
2021/07/21 06:01:38;;;;;;;41.77;15.83;;;;;;;20.83;100.00;100255.38;1769283;80;20947;-87
2021/07/21 06:04:05;;;;;;;37.48;16.60;;;;;;;20.91;100.00;100267.95;1769864;79;20901;-86
2021/07/21 06:06:31;;;;;;;35.43;16.87;;;;;;;20.97;100.00;100262.48;1772425;79;21162;-86
2021/07/21 06:08:57;;;;;;;39.50;16.55;;;;;;;21.03;100.00;100258.39;1763015;80;21006;-86
2021/07/21 06:11:23;;;;;;;37.05;15.65;;;;;;;21.08;100.00;100248.59;1770595;79;20895;-84
2021/07/21 06:13:51;;;;;;;39.75;15.85;;;;;;;21.05;100.00;100230.88;1768810;80;21003;-85
2021/07/21 06:16:19;;;;;;;41.05;16.62;;;;;;;21.02;100.00;100231.56;1758786;79;20992;-84
2021/07/21 06:18:44;;;;;;;31.37;15.83;;;;;;;20.98;100.00;100234.77;1759598;80;21188;-84
2021/07/21 06:21:10;;;;;;;37.98;15.93;;;;;;;20.91;100.00;100233.13;1758096;80;20928;-82
2021/07/21 06:23:36;;;;;;;33.85;15.55;;;;;;;20.86;100.00;100227.31;1763481;80;20912;-84
2021/07/21 06:26:03;;;;;;;30.05;15.40;;;;;;;20.82;100.00;100218.18;1761527;80;20869;-84
2021/07/21 06:28:28;;;;;;;28.52;13.88;;;;;;;20.72;100.00;100202.16;1770918;80;21137;-84
2021/07/21 06:30:54;;;;;;;32.93;14.65;;;;;;;20.67;100.00;100194.72;1740926;80;21611;-82
2021/07/21 06:35:49;;;;;;;24.12;12.70;;;;;;;20.53;100.00;100166.27;1744268;81;21490;-84
2021/07/21 06:38:16;;;;;;;22.65;11.10;;;;;;;20.46;100.00;100157.78;1745874;80;21452;-82
2021/07/21 06:40:42;;;;;;;18.23;10.15;;;;;;;20.42;100.00;100146.13;1741961;81;21090;-90
2021/07/21 06:43:08;;;;;;;28.55;12.07;;;;;;;20.32;100.00;100138.91;1743415;80;21173;-91
2021/07/21 06:45:35;;;;;;;24.70;12.20;;;;;;;20.20;100.00;100143.19;1711131;82;22074;-80
2021/07/21 06:48:02;;;;;;;26.12;11.55;;;;;;;20.16;100.00;100146.37;1735164;80;21062;-82
2021/07/21 06:50:28;;;;;;;26.00;12.25;;;;;;;20.18;100.00;100142.73;1716917;82;21103;-82
2021/07/21 06:52:55;;;;;;;20.52;10.15;;;;;;;20.17;100.00;100134.85;1706023;82;21003;-80
2021/07/21 06:55:21;;;;;;;22.65;10.55;;;;;;;20.15;100.00;100137.94;1714637;82;21158;-82
2021/07/21 06:57:47;;;;;;;21.02;9.63;;;;;;;20.15;100.00;100123.47;1711281;82;20955;-84
2021/07/21 07:00:13;;;;;;;17.67;8.90;;;;;;;20.13;100.00;100114.20;1724300;81;21040;-81
2021/07/21 07:02:39;;;;;;;18.52;8.85;;;;;;;20.14;100.00;100110.90;1739444;81;21102;-82
2021/07/21 07:05:06;;;;;;;17.23;8.45;;;;;;;20.16;100.00;100115.48;1706383;82;20977;-82
2021/07/21 07:07:32;;;;;;;22.98;10.15;;;;;;;20.19;100.00;100106.59;1719242;81;21222;-86
2021/07/21 07:09:58;;;;;;;16.85;9.13;;;;;;;20.20;100.00;100094.50;1727200;81;21084;-83
2021/07/21 07:12:23;;;;;;;15.53;8.58;;;;;;;20.22;100.00;100089.50;1737921;81;20923;-80
2021/07/21 07:14:49;;;;;;;19.80;9.23;;;;;;;20.23;100.00;100091.67;1739944;82;20857;-84
2021/07/21 07:17:15;;;;;;;17.40;8.98;;;;;;;20.20;100.00;100106.81;1721816;81;20873;-82
2021/07/21 07:19:41;;;;;;;22.70;9.68;;;;;;;20.19;100.00;100111.50;1745342;82;21977;-84
2021/07/21 07:22:07;;;;;;;28.75;10.05;;;;;;;20.21;100.00;100086.55;1738390;81;20909;-79
2021/07/21 07:24:33;;;;;;;25.72;9.48;;;;;;;20.24;100.00;100083.13;1725738;81;20913;-79
2021/07/21 07:27:01;;;;;;;25.75;10.30;;;;;;;20.25;100.00;100091.56;1723430;82;21085;-81
2021/07/21 07:29:27;;;;;;;29.52;11.85;;;;;;;20.25;100.00;100113.45;1683443;83;21085;-81
2021/07/21 07:31:53;;;;;;;32.73;10.65;;;;;;;20.23;100.00;100130.77;1741392;80;21163;-79
2021/07/21 07:34:20;;;;;;;27.25;10.78;;;;;;;20.26;100.00;100138.87;1763370;80;21131;-82
2021/07/21 07:36:46;;;;;;;31.57;10.03;;;;;;;20.30;100.00;100139.83;1766008;80;21008;-80
2021/07/21 07:39:13;;;;;;;33.67;10.68;;;;;;;20.37;100.00;100138.13;1751636;80;21066;-86
2021/07/21 07:41:40;;;;;;;29.57;10.05;;;;;;;20.43;100.00;100113.51;1742115;80;21461;-82
2021/07/21 07:44:09;;;;;;;18.27;8.10;;;;;;;20.50;100.00;100102.03;1765336;80;21548;-82
2021/07/21 07:46:36;;;;;;;22.05;7.67;;;;;;;20.53;100.00;100102.75;1756278;80;21489;-80
2021/07/21 07:49:03;;;;;;;14.38;6.80;;;;;;;20.54;100.00;100109.81;1753303;80;21492;-84
2021/07/21 07:51:34;;;;;;;12.37;6.67;;;;;;;20.54;100.00;100117.23;1750900;80;21499;-82
2021/07/21 07:54:02;;;;;;;12.93;6.40;;;;;;;20.52;100.00;100104.41;1752230;81;21102;-90
2021/07/21 07:56:30;;;;;;;18.98;6.92;;;;;;;20.49;100.00;100094.94;1722750;81;21748;-88
2021/07/21 07:58:56;;;;;;;16.17;6.08;;;;;;;20.45;100.00;100068.59;1713112;82;21583;-91
2021/07/21 08:01:22;;;;;;;14.35;6.10;;;;;;;20.42;100.00;100065.39;1742215;82;20967;-93
2021/07/21 08:03:48;;;;;;;16.67;6.67;;;;;;;20.46;100.00;100066.08;1723341;82;21096;-88
2021/07/21 08:06:15;;;;;;;15.78;6.05;;;;;;;20.46;100.00;100049.66;1740843;82;21574;-86
2021/07/21 08:08:40;;;;;;;12.10;5.42;;;;;;;20.42;100.00;100057.17;1741122;82;21082;-91
2021/07/21 08:11:09;;;;;;;17.55;6.15;;;;;;;20.39;100.00;100080.33;1731571;82;20956;-91
2021/07/21 08:13:35;;;;;;;13.18;6.40;;;;;;;20.42;100.00;100076.34;1734925;81;21016;-92
2021/07/21 08:16:01;;;;;;;13.00;6.30;;;;;;;20.43;100.00;100049.19;1726906;82;21036;-89
2021/07/21 08:18:27;;;;;;;13.45;5.95;;;;;;;20.46;100.00;100068.23;1728638;81;21069;-89
2021/07/21 08:20:56;;;;;;;13.10;6.35;;;;;;;20.51;100.00;100089.93;1736108;81;21276;-89
2021/07/21 08:23:22;;;;;;;11.38;5.50;;;;;;;20.61;100.00;100090.88;1760833;80;21083;-94
2021/07/21 08:25:48;;;;;;;9.35;5.75;;;;;;;20.64;100.00;100068.87;1773097;80;20962;-88
2021/07/21 08:28:14;;;;;;;11.15;5.37;;;;;;;20.62;100.00;100054.16;1732780;81;20920;-87
2021/07/21 08:30:43;;;;;;;13.93;5.85;;;;;;;20.69;100.00;100049.48;1759231;81;21998;-89
